Tiempo atmosférico en la estación meteorológica de Cervera De Pisuerga, Palencia (1140 m.)



Fecha
DESCASC
Temp. máxima en grados centígrados (hora)
DESCASC
Temp. mínima en grados centígrados (hora)
DESCASC
Temp. media en grados centígrados
DESCASC
Racha de viento máxima en m/sg (hora)
DESCASC
Velocidad máxima media en intervalos de 10 minutos(hora)
DESCASC
Precipitaciones diarias en mm
DESCASC
Precipitaciones de 00:00 a 06:00 en mm
DESCASC
Precipitaciones de 06:00 a 12:00 en mm
DESCASC
Precipitaciones de 12:00 a 18:00 en mm
DESCASC
Precipitaciones de 18:00 a 24:00 en mm
DESCASC
19-02-2019 8.7 (15:50) 0.2 (04:10) 4.4 9.44 (17:20) 4.17 (17:20) 7.2 4 3.2 0 0
18-02-2019 13.3 (15:30) 0 (08:40) 6.7 -- (--) -- (--) 0.6 0 0 0 0.6
17-02-2019 14.5 (16:10) -1.1 (-00:0) 6.7 -- (--) -- (--) 0 0 0 0 0
16-02-2019 17 (15:10) 1.1 (00:00) 9.1 -- (--) -- (--) 0 0 0 0 0
15-02-2019 17.2 (15:40) 0.1 (00:00) 8.7 8.06 (15:10) 4.72 (20:20) 0 0 0 0 0
14-02-2019 17.4 (16:30) 0.9 (00:00) 9.1 9.17 (13:40) 5.83 (18:10) 0 0 0 0 0
13-02-2019 16.7 (14:50) -5.6 (-00:0) 5.6 8.61 (15:10) 5 (14:50) 0 0 0 0 0
12-02-2019 13.7 (16:20) -3.8 (-00:0) 4.9 6.11 (17:20) 3.61 (07:10) 0 0 0 0 0
11-02-2019 9.7 (16:10) -2.7 (-00:0) 3.5 6.67 (12:20) 3.89 (18:30) 0 0 0 0 0
10-02-2019 11.7 (16:00) -0.4 (00:00) 5.6 16.11 (06:10) 8.06 (06:20) 1.4 0 1.4 0 0
09-02-2019 9.7 (12:10) -0.5 (-00:0) 4.6 11.39 (17:00) 5 (22:50) 0 0 0 0 0
08-02-2019 11.4 (13:10) -0.3 (00:00) 5.5 10.56 (13:40) 5.56 (14:10) 0 0 0 0 0
07-02-2019 10.5 (15:00) 0.2 (00:00) 5.4 5.83 (15:10) 3.33 (15:10) 0 0 0 0 0
06-02-2019 -- (--) -- (--) -- -- (--) -- (--) -- -- -- 0 0
05-02-2019 -- (--) -- (--) -- -- (--) -- (--) -- -- -- -- --
04-02-2019 -- (--) -- (--) -- -- (--) -- (--) -- -- -- -- --
03-02-2019 -- (--) -- (--) -- -- (--) -- (--) -- -- -- -- --
02-02-2019 -- (--) -- (--) -- -- (--) -- (--) -- 0.6 -- -- --
01-02-2019 4 (00:00) -1.3 (-00:0) 1.4 -- (--) -- (--) 8.8 1.6 1.2 4.8 1.2
31-01-2019 8.9 (14:00) 0.6 (00:00) 4.7 -- (--) -- (--) 28.6 3.4 0.8 18.6 5.8
30-01-2019 5.9 (14:00) -3.7 (-00:0) 1.1 11.11 (15:20) 6.39 (15:10) 2.4 0 0 0 2.4
29-01-2019 7.1 (15:50) -2.2 (-00:0) 2.4 16.94 (15:30) 6.11 (16:20) 2.2 0 0 2.2 0
28-01-2019 9.9 (16:10) -1.3 (-00:0) 4.3 16.67 (11:30) 8.61 (11:20) 0 0 0 0 0
27-01-2019 6.9 (13:20) -1.7 (-00:0) 2.6 14.44 (14:30) 6.39 (12:50) 0 0 0 0 0
26-01-2019 13 (16:10) -4 (-00:0) 4.5 5.83 (10:00) 2.78 (15:10) 0 0 0 0 0
25-01-2019 9.6 (16:00) 0 (00:00) 4.8 11.39 (10:50) 5.83 (11:50) 0 0 0 0 0
24-01-2019 9.9 (13:10) 3.6 (00:00) 6.7 16.94 (12:10) 8.06 (11:50) 4 3.6 0.4 0 0

Gráficas

Temp. máximas Temp. mínimas Temp. medias Precipitaciones Rachas de viento máximas Velocidades máximas media en intervalos de 10 minutos

Datos horarios

Fecha y hora oficial Temperatura (ºC) Velocidad del viento (km/h) Dirección del viento Racha (km/h) Dirección de racha Precipitación (mm) Presión (hPa) Tendencia (hPa) Humedad (%)
2019-02-22 23:00:00 4.8 10 Noroeste 19 Oeste 0 899.4 0.6 40
2019-02-22 22:00:00 5.4 12 Oeste 19 Oeste 0 899.3 0.8 42
2019-02-22 21:00:00 6.8 5 Noroeste 20 Oeste 0 899 0.8 39
2019-02-22 20:00:00 8.9 5 Noroeste 21 Sudoeste 0 898.8 0.5 32
2019-02-22 19:00:00 10.8 5 Sudoeste 24 Sudoeste 0 898.5 0.1 27
2019-02-22 18:00:00 14.9 11 Sudoeste 28 Sudoeste 0 898.2 -0.3 22
2019-02-22 17:00:00 17 11 Sudoeste 29 Sudoeste 0 898.3 -0.4 16
2019-02-22 16:00:00 17.1 14 Sudoeste 28 Sudoeste 0 898.4 -0.7 18
2019-02-22 15:00:00 17 13 Sudoeste 30 Sur 0 898.5 -1.1 17
2019-02-22 14:00:00 17.3 -- -- -- -- 0 898.7 -0.9 23
2019-02-22 13:00:00 16.2 -- -- -- -- 0 899.1 -0.7 26
2019-02-22 12:00:00 15.3 13 Sudoeste 25 Sur 0 899.6 0 28
2019-02-22 11:00:00 11.8 6 Este 14 Oeste 0 899.6 0.5 41
2019-02-22 10:00:00 7.2 9 Oeste 16 Oeste 0 899.8 0.6 49
2019-02-22 09:00:00 4.4 9 Noroeste 18 Oeste 0 899.6 0.3 56
2019-02-22 08:00:00 3.1 8 Noroeste 16 Oeste 0 899.1 0 60
2019-02-22 07:00:00 3.4 9 Noroeste 16 Oeste 0 899.2 -0.2 60
2019-02-22 06:00:00 3.5 8 Oeste 16 Oeste 0 899.3 -0.2 62
2019-02-22 05:00:00 4.7 8 Noroeste 19 Oeste 0 899.1 -0.4 56
2019-02-22 04:00:00 5.2 10 Noroeste 19 Oeste 0 899.4 0.1 55
2019-02-22 03:00:00 5.4 9 Oeste 21 Oeste 0 899.5 0.4 54
2019-02-22 02:00:00 5.9 14 Oeste 21 Oeste 0 899.5 0.6 52
2019-02-22 01:00:00 7.4 9 Noroeste 23 Oeste 0 899.3 0.8 47
2019-02-22 00:00:00 7.2 8 Noroeste 23 Oeste 0 899.1 1.2 48
2019-02-21 23:00:00 6.8 12 Oeste 23 Oeste 0 898.9 1.2 50
2019-02-21 22:00:00 6.3 13 Oeste 25 Noroeste 0 898.5 1.6 52
2019-02-21 21:00:00 6.8 8 Noroeste 21 Oeste 0 897.9 1.7 48
2019-02-21 20:00:00 7.4 9 Sudoeste 20 Oeste 0 897.7 1.8 46
2019-02-21 19:00:00 9.1 13 Sudoeste 39 Sudoeste 0 896.9 1.2 39
2019-02-21 18:00:00 12.4 14 Sudoeste 37 Sur 0 896.2 0.6 35
2019-02-21 17:00:00 14.1 15 Sudoeste -- -- 0 895.9 0.2 32
2019-02-21 16:00:00 14.5 14 Sudoeste -- -- 0 895.7 -0.3 34
2019-02-21 15:00:00 14.8 17 Sudoeste 33 Sur 0 895.6 -0.3 33
2019-02-21 14:00:00 14 17 Sudoeste 35 Sudoeste 0 895.7 -0.1 37
2019-02-21 13:00:00 13.9 9 Sudoeste 26 Sudoeste 0 896 0.3 41
2019-02-21 12:00:00 12.3 14 Sudoeste 36 Sudoeste 0 895.9 0.6 41
2019-02-21 11:00:00 9.9 7 Este 14 Oeste 0 895.8 1 52
2019-02-21 10:00:00 6.9 5 Sur 14 Oeste 0 895.7 1.3 70
2019-02-21 09:00:00 2.3 4 Oeste 14 Oeste 0 895.3 1 80
2019-02-21 08:00:00 1.1 4 Noroeste 14 Oeste 0 894.8 0.7 84
2019-02-21 07:00:00 1.2 4 Sudoeste 19 Sudoeste 0 894.4 0.1 83
2019-02-21 06:00:00 0.5 4 Oeste 20 Sudoeste 0 894.3 0 84
2019-02-21 05:00:00 1.3 8 Oeste 15 Oeste 0 894.1 0 75
2019-02-21 04:00:00 1.1 3 Sudoeste 16 Oeste 0 894.3 0.5 77
2019-02-21 03:00:00 1.4 6 Oeste 17 Oeste 0 894.3 0.7 78
2019-02-21 02:00:00 1.4 5 Noroeste 12 Noroeste 0 894.1 0.5 76
2019-02-21 01:00:00 1.4 5 Noroeste 17 Noroeste 0 893.8 0.5 77
2019-02-21 00:00:00 1.1 5 Noroeste 13 Oeste 0 893.6 0.7 79
2019-02-20 23:00:00 1.5 6 Oeste 12 Oeste 0 893.6 0.9 80
2019-02-20 22:00:00 2.3 6 Oeste 16 Oeste 0 893.3 1.1 76
2019-02-20 21:00:00 2.8 5 Oeste 14 Oeste 0 892.9 1.1 74
2019-02-20 20:00:00 4 5 Oeste 21 Sudoeste 0 892.7 1.2 68
2019-02-20 19:00:00 5.5 10 Sudoeste 26 Sudoeste 0 892.2 0.9 61
2019-02-20 18:00:00 9.1 12 Sudoeste 32 Sudoeste 0 891.8 0.4 47
2019-02-20 17:00:00 11.4 13 Sudoeste 37 Sudoeste 0 891.5 0.1 39
2019-02-20 16:00:00 11.8 12 Sudoeste 36 Sudoeste 0 891.3 -0.5 39
2019-02-20 15:00:00 11.4 14 Sudoeste 39 Oeste 0 891.4 -0.3 36
2019-02-20 14:00:00 11.3 17 Sudoeste 41 Sur 0 891.4 0.1 42
2019-02-20 13:00:00 9.4 10 Sudoeste 34 Sur 0 891.8 0.9 47
2019-02-20 12:00:00 9.4 11 Sudoeste 34 Sudoeste 0 891.7 1.4 48
2019-02-20 11:00:00 9 7 Sudoeste 18 Oeste 0 891.3 1.6 53
2019-02-20 10:00:00 5.9 4 Oeste 14 Oeste 0 890.9 1.7 64
2019-02-20 09:00:00 1.6 5 Noroeste 19 Sudoeste 0 890.3 1.2 84
2019-02-20 08:00:00 0.9 4 Oeste 20 Sudoeste 0 889.7 0.7 84
2019-02-20 07:00:00 1 0 Calma 16 Oeste 0 889.2 0.1 83
2019-02-20 06:00:00 2.1 4 Oeste 17 Oeste 0 889.1 -0.3 77
2019-02-20 05:00:00 2.4 3 Oeste 15 Oeste 0 889 -0.3 77
2019-02-20 04:00:00 2.9 5 Oeste 19 Oeste 0 889.1 0 75
2019-02-20 03:00:00 3.8 5 Oeste 30 Sudoeste 0 889.4 0.3 74
2019-02-20 02:00:00 3.7 8 Sudoeste 20 Sudoeste 0 889.3 0.1 76
2019-02-20 01:00:00 4.4 4 Sudoeste 16 Oeste 0 889.1 0.1 72
2019-02-20 00:00:00 4.3 5 Sudoeste 14 Sudoeste 0 889.1 0.4 78
2019-02-19 23:00:00 4 6 Sudoeste 14 Sudoeste 0 889.2 0.6 79
2019-02-19 22:00:00 3.5 6 Sudoeste 10 Sudoeste 0 889 0.9 84
2019-02-19 21:00:00 3.7 5 Sur 9 Sur 0 888.7 0.9 81
2019-02-19 20:00:00 5 9 Sudoeste 19 Sudoeste 0 888.6 0.6 75
2019-02-19 19:00:00 6 9 Sudoeste 31 Sudoeste 0 888.1 0 69
2019-02-19 18:00:00 7 11 Sur 34 Sudoeste 0 887.8 -0.6 71
2019-02-19 17:00:00 7 12 Sur 23 Sur 0 888 -0.9 70
2019-02-19 16:00:00 7.4 9 Sur 19 Sur 0 888.1 -1.4 69
2019-02-19 15:00:00 7 9 Sur 16 Sur 0 888.4 -1.3 73
2019-02-19 14:00:00 5.6 9 Sudeste 17 Sur 0 888.9 -0.8 84
2019-02-19 13:00:00 5.3 8 Sudeste 14 Sur 0 889.5 -0.2 84
2019-02-19 12:00:00 4.3 6 Sudeste 21 Sur 0 889.7 0.5 90
2019-02-19 11:00:00 2.3 2 Sudeste 17 Sudoeste 0 889.7 1.1 96
2019-02-19 10:00:00 1.5 4 Oeste 6 Oeste 0.4 889.7 1.3 96
2019-02-19 09:00:00 0.9 3 Oeste 8 Oeste 0.8 889.2 0.9 96
2019-02-19 08:00:00 0.7 4 Oeste 9 Noroeste 0.8 888.6 0.1 96
2019-02-19 07:00:00 0.7 5 Noroeste 10 Oeste 1.2 888.4 -0.3 96
2019-02-19 06:00:00 0.5 4 Noroeste 8 Noroeste 0.2 888.3 -0.9 97
2019-02-19 05:00:00 0.3 3 Oeste 10 Oeste 0.6 888.5 -0.7 96
2019-02-19 04:00:00 0.3 6 Oeste 11 Oeste 1.2 888.7 -0.2 96
2019-02-19 03:00:00 0.8 4 Oeste 13 Oeste 1.4 889.2 0.5 95
2019-02-19 02:00:00 1.7 5 Oeste 10 Oeste 0.4 889.2 0.6 93
2019-02-19 01:00:00 2 6 Norte 19 Norte 0.2 888.9 0.6 93
2019-02-19 00:00:00 3.3 7 Norte 13 Nordeste 0.2 888.7 1 92
2019-02-18 23:00:00 4.1 8 Sudeste 16 Este 0.4 888.6 0.9 92
2019-02-18 22:00:00 4.8 8 Sudeste 18 Este 0 888.3 0.9 86
2019-02-18 21:00:00 5.6 11 Este 19 Este 0 887.7 0.7 77
2019-02-18 20:00:00 6.6 5 Sudoeste 17 Sudoeste 0 887.7 0.9 61
2019-02-18 19:00:00 7.4 7 Sudoeste 19 Sur 0 887.4 0.8 57
2019-02-18 18:00:00 8.8 9 Sudoeste 22 Sur 0 887 0.3 51
2019-02-18 17:00:00 9.9 10 Sudoeste 32 Sudoeste 0 886.8 -0.2 49
2019-02-18 16:00:00 11.8 15 Sudoeste 35 Sudoeste 0 886.6 -0.9 42
2019-02-18 15:00:00 12.1 14 Sur 38 Sudoeste 0 886.7 -1.1 41
2019-02-18 14:00:00 12 15 Sur -- -- 0 887 -0.9 43
2019-02-18 13:00:00 11.4 18 Sur -- -- 0 887.5 -0.4 43
2019-02-18 12:00:00 9.9 -- -- -- -- 0 887.8 0.2 45
2019-02-18 11:00:00 4.9 6 Norte 10 Oeste 0 887.9 1 67
2019-02-18 10:00:00 2.6 8 Oeste 14 Oeste 0 887.9 1 75
2019-02-18 09:00:00 0.4 5 Nordeste 9 Nordeste 0 887.6 0.9 83
2019-02-18 08:00:00 0.5 6 Este 14 Este 0 886.9 0.4 80
2019-02-18 07:00:00 0.8 6 Nordeste 11 Nordeste 0 886.9 0.1 80
2019-02-18 06:00:00 2.5 6 Este -- -- 0 886.7 -0.4 74
2019-02-18 05:00:00 4.3 5 Este 17 Oeste 0 886.5 -0.7 69
2019-02-18 04:00:00 5.5 6 Oeste 30 Sur 0 886.8 -0.5 59
2019-02-18 03:00:00 5.7 7 Sudoeste 30 Sudoeste 0 887.1 -0.2 55
2019-02-18 02:00:00 5.5 14 Sudoeste -- -- 0 887.2 -0.5 58
2019-02-18 01:00:00 2.1 -- -- -- -- 0 887.3 -0.6 57
2019-02-18 00:00:00 3.9 9 Sur -- -- 0 887.3 -0.4 49
2019-02-17 23:00:00 4.6 10 Sur 39 Sur 0 887.7 -0.1 46
2019-02-17 22:00:00 3.3 -- -- -- -- 0 887.9 0.3 50
2019-02-17 21:00:00 4.7 10 Oeste 18 Oeste 0 887.7 0 45
2019-02-17 20:00:00 6.6 10 Oeste 21 Oeste 0 887.8 -0.4 39
2019-02-17 19:00:00 8.6 5 Sudoeste -- -- 0 887.6 -1 34
2019-02-17 18:00:00 12.9 -- -- -- -- 0 887.7 -1.4 26
2019-02-17 17:00:00 14.3 -- -- -- -- 0 888.2 -1.5 24
2019-02-17 16:00:00 14.2 14 Sudoeste -- -- 0 888.6 -1.9 26
2019-02-17 15:00:00 13.7 -- -- -- -- 0 889.1 -2 26
2019-02-17 14:00:00 13.9 13 Sudoeste 23 Sudoeste 0 889.7 -1.7 26
2019-02-17 13:00:00 13.2 15 Sudoeste 25 Sur 0 890.5 -1.2 33
2019-02-17 12:00:00 12.1 9 Sudoeste -- -- 0 891.1 -0.5 39
2019-02-17 11:00:00 8.5 8 Sudoeste 14 Oeste 0 891.4 -0.1 52
2019-02-17 10:00:00 3.4 4 Nordeste 13 Sudoeste 0 891.7 0.2 65
2019-02-17 09:00:00 -0.2 6 Norte 21 Oeste 0 891.6 0.2 80
2019-02-17 08:00:00 -0.7 3 Nordeste 10 Sudoeste 0 891.5 0.2 80
2019-02-17 07:00:00 0.3 4 Norte 19 Sur 0 891.5 -0.1 75
2019-02-17 06:00:00 0.9 2 Nordeste 12 Oeste 0 891.4 -0.4 72
2019-02-17 05:00:00 1.8 5 Norte 13 Sur 0 891.3 -0.9 67
2019-02-17 04:00:00 3.9 7 Sur 19 Sur 0 891.6 -0.7 57
2019-02-17 03:00:00 5.6 8 Sudoeste 29 Sur 0 891.8 -0.4 49
2019-02-17 02:00:00 5.6 6 Sudoeste 21 Oeste 0 892.2 0.1 49
2019-02-17 01:00:00 4.4 -- -- -- -- 0 892.3 0.2 63
2019-02-17 00:00:00 5.1 7 Sudeste 23 Oeste 0 892.2 0.1 55
2019-02-16 23:00:00 6.9 12 Noroeste 24 Oeste 0 892.1 0 48
2019-02-16 22:00:00 6.3 10 Oeste -- -- 0 892.1 0.1 52
2019-02-16 21:00:00 6.8 4 Norte -- -- 0 892.1 0.2 50
2019-02-16 20:00:00 7.8 -- -- -- -- 0 892.1 0 47
2019-02-16 19:00:00 9.5 12 Sudoeste 28 Sur 0 892 -0.4 43
2019-02-16 18:00:00 12.8 19 Sur 29 Sur 0 891.9 -1 38
2019-02-16 17:00:00 14.7 17 Sur 29 Sur 0 892.1 -1.7 32
2019-02-16 16:00:00 15.5 -- -- -- -- 0 892.4 -2.2 31
2019-02-16 15:00:00 16.8 14 Sur -- -- 0 892.9 -2.3 25
2019-02-16 14:00:00 16 -- -- -- -- 0 893.8 -1.5 25
2019-02-16 13:00:00 14.5 14 Sudeste 27 Sur 0 894.6 -0.8 30
2019-02-16 12:00:00 12.5 5 Este 18 Sur 0 895.2 -0.1 33
2019-02-16 11:00:00 9.4 6 Norte 12 Sur 0 895.3 0.4 36
2019-02-16 10:00:00 4.7 4 Oeste 7 Noroeste 0 895.4 0.5 51
2019-02-16 09:00:00 2 0 Calma 12 Oeste 0 895.3 0.3 62
2019-02-16 08:00:00 1.1 5 Noroeste 15 Oeste 0 894.9 -0.2 61
2019-02-16 07:00:00 2.4 7 Noroeste 18 Oeste 0 894.9 -0.6 54
2019-02-16 06:00:00 3 10 Noroeste 19 Noroeste 0 895 -0.8 55
2019-02-16 05:00:00 1.6 8 Noroeste 17 Noroeste 0 895.1 -0.9 64
2019-02-16 04:00:00 3.2 6 Noroeste 18 Oeste 0 895.5 -0.5 56
2019-02-16 03:00:00 4.4 10 Noroeste 22 Oeste 0 895.8 -0.3 53
2019-02-16 02:00:00 4.3 8 Norte 17 Oeste 0 896 -0.2 56
2019-02-16 01:00:00 4.6 10 Noroeste 19 Oeste 0 896 0 56
2019-02-16 00:00:00 4.7 8 Norte 20 Oeste 0 896.1 0.1 58
2019-02-15 23:00:00 5.7 7 Noroeste 22 Oeste 0 896.2 0.4 56
2019-02-15 22:00:00 6.4 11 Noroeste 23 Oeste 0 896 0.6 57
2019-02-15 21:00:00 7.5 9 Noroeste 22 Oeste 0 896 1.1 52
2019-02-15 20:00:00 8.6 7 Noroeste 20 Oeste 0 895.8 0.8 49
2019-02-15 19:00:00 10.6 10 Sur 22 Sur 0 895.4 0.3 41
2019-02-15 18:00:00 13.7 9 Sudeste 17 Sudeste 0 894.9 -0.4 35
2019-02-15 17:00:00 16.5 8 Sudeste 27 Sur 0 895 -0.8 29
2019-02-15 16:00:00 17 10 Sudeste 29 Sur 0 895.1 -1.5 29
2019-02-15 15:00:00 16.8 10 Sudeste 24 Sur 0 895.3 -1.6 31
2019-02-15 14:00:00 16.2 11 Sudeste 25 Sur 0 895.8 -0.9 32
2019-02-15 13:00:00 13.8 7 Este 18 Sur 0 896.6 0 35
2019-02-15 12:00:00 11.5 8 Sur 18 Sur 0 896.9 0.7 37
2019-02-15 11:00:00 8.3 3 Este 12 Oeste 0 896.7 0.9 42
2019-02-15 10:00:00 5.1 2 Sudoeste 11 Oeste 0 896.6 0.8 50
2019-02-15 09:00:00 0.8 5 Noroeste 9 Oeste 0 896.2 0.5 63
2019-02-15 08:00:00 0.6 5 Norte 11 Oeste 0 895.8 0.2 61
2019-02-15 07:00:00 1.8 4 Noroeste 16 Oeste 0 895.8 0 56
2019-02-15 06:00:00 1.9 4 Noroeste 14 Oeste 0 895.7 -0.4 56
2019-02-15 05:00:00 2.7 4 Oeste 18 Oeste 0 895.6 -0.7 50
2019-02-15 04:00:00 3.1 6 Oeste 17 Oeste 0 895.8 -0.4 47
2019-02-15 03:00:00 3.6 8 Noroeste 16 Oeste 0 896.1 0.1 46
2019-02-15 02:00:00 3.6 5 Oeste 19 Oeste 0 896.3 0.2 47
2019-02-15 01:00:00 4.2 12 Oeste 19 Oeste 0 896.2 0.1 45
2019-02-15 00:00:00 4.3 7 Oeste 19 Oeste 0 896 0 46
2019-02-14 23:00:00 4.8 12 Oeste 19 Oeste 0 896.1 0.1 43
2019-02-14 22:00:00 5.5 6 Norte 22 Oeste 0 896.1 0.5 39
2019-02-14 21:00:00 7.1 9 Noroeste 20 Oeste 0 896 0.6 32
2019-02-14 20:00:00 8 8 Sudoeste 22 Sur 0 896 0.5 30
2019-02-14 19:00:00 9.9 16 Sudoeste 26 Sur 0 895.6 0 31
2019-02-14 18:00:00 15.3 19 Sur 27 Sudoeste 0 895.4 -0.7 23
2019-02-14 17:00:00 16.6 16 Sur 29 Sur 0 895.5 -1.4 21
2019-02-14 16:00:00 17.3 12 Sudoeste 30 Sur 0 895.6 -2 18
2019-02-14 15:00:00 15.6 16 Sur 29 Sur 0 896.1 -1.8 23
2019-02-14 14:00:00 14.1 15 Sudeste 33 Sur 0 896.9 -1.2 29
2019-02-14 13:00:00 13.3 14 Sudeste 26 Sur 0 897.6 -0.6 32
2019-02-14 12:00:00 12.4 16 Sur 26 Sur 0 897.9 0 34
2019-02-14 11:00:00 9.8 6 Sur 15 Sur 0 898.1 0.6 40
2019-02-14 10:00:00 5.7 5 Oeste 14 Oeste 0 898.2 0.7 42
2019-02-14 09:00:00 1.9 6 Noroeste 13 Noroeste 0 897.9 0.4 55
2019-02-14 08:00:00 2.1 8 Noroeste 14 Noroeste 0 897.5 0.1 45
2019-02-14 07:00:00 1.4 9 Noroeste 16 Oeste 0 897.5 -0.1 48
2019-02-14 06:00:00 1.3 5 Noroeste 16 Oeste 0 897.5 -0.2 50
2019-02-14 05:00:00 2 6 Oeste 16 Oeste 0 897.4 -0.5 46
2019-02-14 04:00:00 1.8 8 Oeste 17 Oeste 0 897.6 -0.3 51
2019-02-14 03:00:00 2.6 8 Oeste 17 Oeste 0 897.7 -0.3 50
2019-02-14 02:00:00 2.4 8 Noroeste 18 Oeste 0 897.9 -0.1 56
2019-02-14 01:00:00 2.9 8 Noroeste 17 Oeste 0 897.9 0.2 55
2019-02-14 00:00:00 3 8 Noroeste 16 Oeste 0 898 0.5 58
2019-02-13 23:00:00 3.1 7 Noroeste 18 Oeste 0 898 0.4 59
2019-02-13 22:00:00 4.9 13 Oeste 20 Oeste 0 897.7 0.7 53
2019-02-13 21:00:00 -5.2 8 Oeste 20 Oeste 0 897.5 0.7 54
2019-02-13 20:00:00 6.4 14 Oeste 19 Oeste 0 897.6 0.9 48
2019-02-13 19:00:00 8.7 9 Sudeste 27 Sur 0 897 0.5 39
2019-02-13 18:00:00 13 11 Sudeste 30 Sur 0 896.8 0.2 28
2019-02-13 17:00:00 15.1 12 Sudeste 31 Sur 0 896.7 -0.3 26
2019-02-13 16:00:00 16 10 Sudeste 31 Sur 0 896.5 -1.2 27
2019-02-13 15:00:00 16.3 15 Sur 30 Sur 0 896.6 -1.2 19
2019-02-13 14:00:00 16.2 15 Sur 30 Sur 0 897 -0.8 19
2019-02-13 13:00:00 14.7 9 Este 17 Sudoeste 0 897.7 0 19
2019-02-13 12:00:00 11.5 6 Sudeste 17 Sur 0 897.8 0.2 29
2019-02-13 11:00:00 9.8 7 Sur 14 Oeste 0 897.8 0.6 31
2019-02-13 10:00:00 4.6 6 Noroeste 15 Oeste 0 897.7 0.6 30
2019-02-13 09:00:00 0.9 7 Noroeste 12 Noroeste 0 897.6 0.4 40
2019-02-13 08:00:00 0 4 Noroeste 13 Noroeste 0 897.2 0 44
2019-02-13 07:00:00 0.2 6 Oeste 11 Noroeste 0 897.1 -0.4 45
2019-02-13 06:00:00 0.9 7 Noroeste 16 Oeste 0 897.2 -0.6 42
2019-02-13 05:00:00 1.2 7 Oeste 12 Noroeste 0 897.2 -0.8 41
2019-02-13 04:00:00 1.5 7 Noroeste 15 Noroeste 0 897.5 -0.8 43
2019-02-13 03:00:00 1.4 9 Noroeste 14 Noroeste 0 897.8 -0.7 45
2019-02-13 02:00:00 1.5 8 Noroeste 14 Noroeste 0 898 -0.7 47
2019-02-13 01:00:00 1.9 8 Noroeste 16 Oeste 0 898.3 -0.4 48
2019-02-13 00:00:00 2 9 Noroeste 17 Oeste 0 898.5 -0.2 50
2019-02-12 23:00:00 2.8 8 Noroeste 18 Oeste 0 898.7 0.1 45
2019-02-12 22:00:00 2.9 9 Noroeste 14 Noroeste 0 898.7 0.4 46
2019-02-12 21:00:00 4.3 7 Noroeste 19 Oeste 0 898.7 0.5 39
2019-02-12 20:00:00 5.2 9 Noroeste 19 Oeste 0 898.6 0.3 38
2019-02-12 19:00:00 7.8 11 Sudoeste 16 Sudoeste 0 898.3 -0.1 25
2019-02-12 18:00:00 11.7 6 Este 22 Sur 0 898.2 -0.3 19
2019-02-12 17:00:00 13.2 9 Este 18 Sur 0 898.3 -0.5 16
2019-02-12 16:00:00 13.4 8 Este 18 Sur 0 898.4 -0.8 22
2019-02-12 15:00:00 13.4 9 Este 20 Sur 0 898.5 -0.9 28
2019-02-12 14:00:00 12 13 Sur 22 Sur 0 898.8 -0.6 25
2019-02-12 13:00:00 10.5 10 Sudeste 17 Sur 0 899.2 0 35
2019-02-12 12:00:00 9.4 6 Sur 16 Sur 0 899.4 0.1 30
2019-02-12 11:00:00 6.7 4 Sudeste 18 Sudoeste 0 899.4 0.5 55
2019-02-12 10:00:00 0.8 8 Noroeste 14 Noroeste 0 899.2 0.6 54
2019-02-12 09:00:00 -2.5 5 Noroeste 17 Oeste 0 899.3 0.4 78
2019-02-12 08:00:00 -2.8 4 Norte 19 Noroeste 0 898.9 -0.6 74
2019-02-12 07:00:00 -2 12 Noroeste 17 Noroeste 0 898.6 -1.1 83
2019-02-12 06:00:00 -2.8 8 Noroeste 14 Noroeste 0 898.9 -0.9 95
2019-02-12 05:00:00 -3 10 Noroeste 16 Oeste 0 899.5 -0.4 99
2019-02-12 04:00:00 -2.9 4 Noroeste 16 Oeste 0 899.7 0.1 99
2019-02-12 03:00:00 -2.7 7 Noroeste 13 Noroeste 0 899.8 -0.1 98
2019-02-12 02:00:00 -2.5 7 Nordeste 13 Sudoeste 0 899.9 0.2 95
2019-02-12 01:00:00 -1.3 2 Noroeste 10 Noroeste 0 899.6 0.2 92
2019-02-12 00:00:00 -1.3 6 Oeste 18 Sur 0 899.9 0.6 93
2019-02-11 23:00:00 -0.5 5 Sudeste 16 Sudoeste 0 899.7 0.6 92
2019-02-11 22:00:00 0 3 Oeste 17 Norte 0 899.4 1 87
2019-02-11 21:00:00 0.5 6 Noroeste 13 Norte 0 899.3 1.4 85
2019-02-11 20:00:00 1.1 2 Este 12 Sur 0 899.1 1.2 84
2019-02-11 19:00:00 2.8 6 Sudeste 20 Sudeste 0 898.4 0.6 76
2019-02-11 18:00:00 6.6 10 Sudeste 21 Este 0 897.9 -0.1 59
2019-02-11 17:00:00 8.9 9 Nordeste 19 Nordeste 0 897.9 -0.3 42
2019-02-11 16:00:00 9.3 8 Nordeste 22 Nordeste 0 897.8 -0.9 43
2019-02-11 15:00:00 9.2 9 Nordeste 19 Nordeste 0 898 -0.2 40
2019-02-11 14:00:00 7.2 4 Este 20 Sur 0 898.2 0.3 47
2019-02-11 13:00:00 7.5 8 Sudeste 24 Sur 0 898.7 1.4 50
2019-02-11 12:00:00 6.8 4 Este 22 Sur 0 898.2 1.5 53
2019-02-11 11:00:00 4.2 4 Este 17 Oeste 0 897.9 1.9 60
2019-02-11 10:00:00 0.6 6 Oeste 22 Oeste 0 897.3 1.7 72
2019-02-11 09:00:00 -2 6 Noroeste 19 Oeste 0 896.7 1.6 80
2019-02-11 08:00:00 -2.1 6 Noroeste 19 Oeste 0 896 1 82
2019-02-11 07:00:00 -2.2 6 Noroeste 20 Oeste 0 895.6 1.1 87
2019-02-11 06:00:00 -2.2 8 Noroeste 21 Oeste 0 895.1 0.8 87
2019-02-11 05:00:00 -1.7 7 Noroeste 17 Oeste 0 895 1.1 90
2019-02-11 04:00:00 -2.2 4 Oeste 17 Oeste 0 894.5 1.1 94
2019-02-11 03:00:00 -1.8 5 Oeste 17 Sur 0 894.3 1.3 93
2019-02-11 02:00:00 -1.1 4 Oeste 17 Oeste 0 893.9 1.1 94
2019-02-11 01:00:00 -0.6 4 Noroeste 10 Norte 0 893.4 1.1 94
2019-02-11 00:00:00 -0.4 0 Calma 8 Norte 0 893 1.2 91
2019-02-10 23:00:00 0.4 7 Norte 17 Norte 0 892.8 1.8 90
2019-02-10 22:00:00 1.2 8 Norte 18 Norte 0 892.3 2.1 89
2019-02-10 21:00:00 1.6 8 Norte 15 Norte 0 891.8 2.2 90
2019-02-10 20:00:00 2.2 3 Oeste 13 Nordeste 0 891 2 89
2019-02-10 19:00:00 4 7 Este 16 Este 0 890.2 1.8 84
2019-02-10 18:00:00 9.1 6 Sudeste 21 Oeste 0 889.6 1.8 67
2019-02-10 17:00:00 10.7 12 Oeste 32 Oeste 0 889 1.5 50
2019-02-10 16:00:00 11.6 11 Oeste 43 Oeste 0 888.4 0.9 52
2019-02-10 15:00:00 11.3 15 Oeste 34 Oeste 0 887.8 0.9 55
2019-02-10 14:00:00 9.4 6 Norte 17 Oeste 0 887.5 1.2 74
2019-02-10 13:00:00 8.4 6 Nordeste 26 Oeste 0 887.5 1.6 87
2019-02-10 12:00:00 7.6 13 Sudoeste 35 Sudoeste 0 886.9 1.5 85
2019-02-10 11:00:00 6.3 17 Sudoeste 37 Sudoeste 0.4 886.3 1.6 90
2019-02-10 10:00:00 5.5 15 Sudoeste 44 Oeste 0.2 885.9 1.2 92
2019-02-10 09:00:00 4.7 10 Sudoeste 42 Sudoeste 0.4 885.4 1 93
2019-02-10 08:00:00 4.6 23 Sudoeste 42 Oeste 0.4 884.7 0 93
2019-02-10 07:00:00 4.5 17 Sudoeste 58 Sudoeste 0 884.7 -0.7 94
2019-02-10 06:00:00 4.5 26 Sudoeste 54 Sudoeste 0 884.4 -1.2 93
2019-02-10 05:00:00 4.2 24 Sudoeste 54 Oeste 0 884.7 -1.7 93
2019-02-10 04:00:00 4.2 16 Sudoeste 40 Sudoeste 0 885.4 -1.3 91
2019-02-10 03:00:00 4 21 Sudoeste 49 Sudoeste 0 885.6 -1.5 89
2019-02-10 02:00:00 4 22 Sudoeste 50 Oeste 0 886.4 -0.9 86
2019-02-10 01:00:00 4.2 11 Oeste 35 Sudoeste 0 886.7 -0.6 82
2019-02-10 00:00:00 4.5 5 Noroeste 39 Oeste 0 887.1 -0.2 79
2019-02-09 23:00:00 4.9 17 Sudoeste 39 Oeste 0 887.3 -0.1 77
2019-02-09 22:00:00 5.3 10 Sudoeste 32 Sur 0 887.3 -0.1 75
2019-02-09 21:00:00 5.8 17 Sudoeste 32 Oeste 0 887.3 -0.2 71
2019-02-09 20:00:00 6 14 Sudoeste 32 Sudoeste 0 887.4 -0.4 70
2019-02-09 19:00:00 5.9 9 Sudoeste 27 Sudoeste 0 887.4 -0.8 73
2019-02-09 18:00:00 6.2 8 Sudoeste 33 Sudoeste 0 887.5 -1.4 70
2019-02-09 17:00:00 6.9 17 Sudoeste 41 Sudoeste 0 887.8 -1.4 64
2019-02-09 16:00:00 5.4 9 Noroeste -- -- 0 888.2 -1.5 76
2019-02-09 15:00:00 6.4 12 Oeste 36 Oeste 0 888.9 -1.3 68
2019-02-09 14:00:00 7.3 13 Sudoeste 37 Oeste 0 889.2 -1.4 61
2019-02-09 13:00:00 8.3 10 Sudoeste 25 Oeste 0 889.7 -0.8 59
2019-02-09 12:00:00 9.3 10 Sudoeste 30 Sur 0 890.2 -0.1 56
2019-02-09 11:00:00 4.7 5 Oeste 23 Sur 0 890.6 0.8 98
2019-02-09 10:00:00 1.4 4 Oeste 12 Oeste 0 890.5 0.9 100
2019-02-09 09:00:00 0.3 5 Nordeste 9 Oeste 0 890.3 0.7 100
2019-02-09 08:00:00 -0.2 4 Nordeste 17 Sudoeste 0 889.8 0.3 100
2019-02-09 07:00:00 -0.1 5 Este 18 Sudoeste 0 889.6 -0.2 99
2019-02-09 06:00:00 -0.1 4 Norte 10 Noroeste 0 889.6 -0.3 98
2019-02-09 05:00:00 0.2 4 Este 10 Oeste 0 889.5 -0.1 96
2019-02-09 04:00:00 0.9 6 Nordeste 10 Sur 0 889.8 0.3 94
2019-02-09 03:00:00 0.7 6 Nordeste 17 Nordeste 0 889.9 0.5 92
2019-02-09 02:00:00 1.5 6 Nordeste 14 Oeste 0 889.6 0.5 87
2019-02-09 01:00:00 2.5 8 Este 13 Este 0 889.5 0.5 83
2019-02-09 00:00:00 4.6 7 Sudoeste 26 Oeste 0 889.4 0.3 73
2019-02-08 23:00:00 5.1 14 Sudoeste 35 Sudoeste 0 889.1 0.3 73
2019-02-08 22:00:00 4.6 9 Oeste 30 Oeste 0 889 0.5 72
2019-02-08 21:00:00 5.1 8 Noroeste 19 Noroeste 0 889.1 0.9 70
2019-02-08 20:00:00 5.3 9 Oeste 18 Oeste 0 888.8 0.9 68
2019-02-08 19:00:00 3.5 8 Sudeste 18 Sur 0 888.5 0.7 77
2019-02-08 18:00:00 5.1 7 Sur 31 Sudoeste 0 888.2 0.1 66
2019-02-08 17:00:00 7.9 10 Sudoeste 33 Sur 0 887.9 -0.6 56
2019-02-08 16:00:00 10.3 14 Sudoeste 36 Sur 0 887.8 -1.1 51
2019-02-08 15:00:00 10.3 14 Sudoeste 37 Sur 0 888.1 -1.1 46
2019-02-08 14:00:00 10.1 18 Sudoeste 38 Sur 0 888.5 -0.8 49
2019-02-08 13:00:00 11 12 Sudoeste 26 Sudoeste 0 888.9 -0.5 31
2019-02-08 12:00:00 9.3 7 Sur 15 Oeste 0 889.2 0.1 56
2019-02-08 11:00:00 4.4 4 Nordeste 10 Nordeste 0 889.3 0.3 76
2019-02-08 10:00:00 2 6 Nordeste 11 Nordeste 0 889.4 0.4 88
2019-02-08 09:00:00 -0.1 3 Este 21 Sur 0 889.1 -0.2 96
2019-02-08 08:00:00 0.4 7 Norte 12 Norte 0 889 -0.9 93
2019-02-08 07:00:00 2.6 5 Norte 13 Oeste 0 889 -1.3 85
2019-02-08 06:00:00 1.8 5 Sur 13 Oeste 0 889.3 -1.5 87
2019-02-08 05:00:00 1.9 4 Noroeste 16 Oeste 0 889.9 -1.2 88
2019-02-08 04:00:00 1.9 7 Sudoeste 20 Oeste 0 890.3 -1.1 85
2019-02-08 03:00:00 1.8 5 Oeste 17 Oeste 0 890.8 -0.7 90
2019-02-08 02:00:00 1.8 4 Nordeste 12 Nordeste 0 891.1 -0.7 97
2019-02-08 01:00:00 1.6 5 Nordeste 19 Sur 0 891.4 -0.4 99
2019-02-08 00:00:00 1.2 6 Noroeste 19 Oeste 0 891.5 -0.5 99
2019-02-07 23:00:00 0.8 5 Noroeste 11 Oeste 0 891.8 -0.2 98
2019-02-07 22:00:00 1.1 3 Sudoeste 11 Oeste 0 891.8 -0.2 96
2019-02-07 21:00:00 2.1 3 Noroeste 14 Oeste 0 892 0.3 95
2019-02-07 20:00:00 2.4 2 Noroeste 12 Oeste 0 892 0.4 93
2019-02-07 19:00:00 3.6 3 Sudeste 16 Este 0 892 0.4 85
2019-02-07 18:00:00 5.9 9 Este 19 Este 0 891.7 -0.2 77
2019-02-07 17:00:00 8.7 10 Este 20 Este 0 891.6 -0.4 65
2019-02-07 16:00:00 9 11 Sudeste 21 Sur 0 891.6 -1 60
2019-02-07 15:00:00 10.5 11 Este 18 Nordeste 0 891.9 -0.9 58
2019-02-07 14:00:00 10 9 Sudeste 18 Este 0 892 -0.6 58
2019-02-07 13:00:00 9 11 Sudeste 18 Este 0 892.6 0.3 62
2019-02-07 12:00:00 7.8 10 Sudeste 18 Sur 0 892.8 1.1 65
2019-02-07 11:00:00 7.4 4 Sudeste 14 Sur 0 892.6 1.6 63
2019-02-07 10:00:00 3 0 Calma 10 Oeste 0 892.3 1.4 79
2019-02-07 09:00:00 0.8 4 Noroeste 10 Oeste 0 891.7 1.1 82
2019-02-07 08:00:00 0.3 4 Noroeste 11 Oeste 0 891 0.3 83
2019-02-07 07:00:00 0.6 3 Oeste 11 Oeste 0 890.9 -0.1 81
2019-02-07 06:00:00 1 4 Noroeste 14 Oeste 0 890.6 -0.5 82
2019-02-07 05:00:00 1.9 7 Noroeste 17 Oeste 0 890.7 -0.6 76
2019-02-07 04:00:00 3.2 5 Oeste 18 Oeste 0 891 -0.5 70
2019-02-07 03:00:00 4.2 4 Oeste 15 Oeste 0 891.1 -0.5 66
2019-02-07 02:00:00 4.5 8 Noroeste 17 Oeste 0 891.3 -0.1 65
2019-02-07 01:00:00 3.9 6 Oeste 16 Oeste 0 891.5 0 69
2019-02-07 00:00:00 5.3 9 Oeste 17 Oeste 0 891.6 0.1 65
2019-02-06 23:00:00 4.4 6 Oeste 16 Noroeste 0 891.4 -0.2 69
2019-02-06 22:00:00 5.1 5 Sudoeste 18 Oeste 0 891.5 0 67
2019-02-06 21:00:00 6 10 Oeste 20 Oeste 0 891.5 0.1 64
2019-02-06 20:00:00 6.1 8 Noroeste 20 Oeste 0 891.6 0.1 65
2019-02-06 19:00:00 6.7 4 Norte 19 Oeste 0 891.5 -0.2 63
2019-02-06 18:00:00 8.4 8 Sudoeste 19 Oeste 0 891.4 -0.8 57
2019-02-06 17:00:00 10.5 11 Sudoeste 28 Sudoeste 0 891.5 -1.2 49
2019-02-06 16:00:00 12.3 12 Sudoeste 35 Oeste 0 891.7 -1.9 49
2019-02-06 15:00:00 12.8 14 Sudoeste 30 Oeste 0 892.2 -2 44
2019-02-06 14:00:00 13.6 12 Sudoeste 23 Sur 0 892.7 -1.8 42
2019-02-06 13:00:00 12.6 6 Sudeste 18 Oeste 0 893.6 -- 47
2019-02-06 12:00:00 9.6 7 Noroeste 14 Oeste 0 894.2 -- 53
2019-02-06 11:00:00 7.2 3 Noroeste -- -- -- 894.5 -- 61
2019-02-06 10:00:00 -- -- -- -- -- -- -- -- --
2019-02-06 09:00:00 -- -- -- -- -- -- -- -- --
2019-02-06 08:00:00 -- -- -- -- -- -- -- -- --
2019-02-06 07:00:00 -- -- -- -- -- -- -- -- --
2019-02-06 06:00:00 -- -- -- -- -- -- -- -- --
2019-02-06 05:00:00 -- -- -- -- -- -- -- -- --
2019-02-06 04:00:00 -- -- -- -- -- -- -- -- --
2019-02-06 03:00:00 -- -- -- -- -- -- -- -- --
2019-02-06 02:00:00 -- -- -- -- -- -- -- -- --
2019-02-06 01:00:00 -- -- -- -- -- -- -- -- --
2019-02-06 00:00:00 -- -- -- -- -- -- -- -- --
2019-02-05 23:00:00 -- -- -- -- -- -- -- -- --
2019-02-05 22:00:00 -- -- -- -- -- -- -- -- --
2019-02-05 21:00:00 -- -- -- -- -- -- -- -- --
2019-02-05 20:00:00 -- -- -- -- -- -- -- -- --
2019-02-05 19:00:00 -- -- -- -- -- -- -- -- --
2019-02-05 18:00:00 -- -- -- -- -- -- -- -- --
2019-02-05 17:00:00 -- -- -- -- -- -- -- -- --
2019-02-05 16:00:00 -- -- -- -- -- -- -- -- --
2019-02-05 15:00:00 -- -- -- -- -- -- -- -- --
2019-02-05 14:00:00 -- -- -- -- -- -- -- -- --
2019-02-05 13:00:00 -- -- -- -- -- -- -- -- --
2019-02-05 12:00:00 -- -- -- -- -- -- -- -- --
2019-02-05 11:00:00 -- -- -- -- -- -- -- -- --
2019-02-05 10:00:00 -- -- -- -- -- -- -- -- --
2019-02-05 09:00:00 -- -- -- -- -- -- -- -- --
2019-02-05 08:00:00 -- -- -- -- -- -- -- -- --
2019-02-05 07:00:00 -- -- -- -- -- -- -- -- --
2019-02-05 06:00:00 -- -- -- -- -- -- -- -- --
2019-02-05 05:00:00 -- -- -- -- -- -- -- -- --
2019-02-05 04:00:00 -- -- -- -- -- -- -- -- --
2019-02-05 03:00:00 -- -- -- -- -- -- -- -- --
2019-02-05 02:00:00 -- -- -- -- -- -- -- -- --
2019-02-05 01:00:00 -- -- -- -- -- -- -- -- --
2019-02-05 00:00:00 -- -- -- -- -- -- -- -- --
2019-02-04 23:00:00 -- -- -- -- -- -- -- -- --
2019-02-04 22:00:00 -- -- -- -- -- -- -- -- --
2019-02-04 21:00:00 -- -- -- -- -- -- -- -- --
2019-02-04 20:00:00 -- -- -- -- -- -- -- -- --
2019-02-04 19:00:00 -- -- -- -- -- -- -- -- --
2019-02-04 18:00:00 -- -- -- -- -- -- -- -- --
2019-02-04 17:00:00 -- -- -- -- -- -- -- -- --
2019-02-04 16:00:00 -- -- -- -- -- -- -- -- --
2019-02-04 15:00:00 -- -- -- -- -- -- -- -- --
2019-02-04 14:00:00 -- -- -- -- -- -- -- -- --
2019-02-04 13:00:00 -- -- -- -- -- -- -- -- --
2019-02-04 12:00:00 -- -- -- -- -- -- -- -- --
2019-02-04 11:00:00 -- -- -- -- -- -- -- -- --
2019-02-04 10:00:00 -- -- -- -- -- -- -- -- --
2019-02-04 09:00:00 -- -- -- -- -- -- -- -- --
2019-02-04 08:00:00 -- -- -- -- -- -- -- -- --
2019-02-04 07:00:00 -- -- -- -- -- -- -- -- --
2019-02-04 06:00:00 -- -- -- -- -- -- -- -- --
2019-02-04 05:00:00 -- -- -- -- -- -- -- -- --
2019-02-04 04:00:00 -- -- -- -- -- -- -- -- --
2019-02-04 03:00:00 -- -- -- -- -- -- -- -- --
2019-02-04 02:00:00 -- -- -- -- -- -- -- -- --
2019-02-04 01:00:00 -- -- -- -- -- -- -- -- --
2019-02-04 00:00:00 -- -- -- -- -- -- -- -- --
2019-02-03 23:00:00 -- -- -- -- -- -- -- -- --
2019-02-03 22:00:00 -- -- -- -- -- -- -- -- --
2019-02-03 21:00:00 -- -- -- -- -- -- -- -- --
2019-02-03 20:00:00 -- -- -- -- -- -- -- -- --
2019-02-03 19:00:00 -- -- -- -- -- -- -- -- --
2019-02-03 18:00:00 -- -- -- -- -- -- -- -- --
2019-02-03 17:00:00 -- -- -- -- -- -- -- -- --
2019-02-03 16:00:00 -- -- -- -- -- -- -- -- --
2019-02-03 15:00:00 -- -- -- -- -- -- -- -- --
2019-02-03 14:00:00 -- -- -- -- -- -- -- -- --
2019-02-03 13:00:00 -- -- -- -- -- -- -- -- --
2019-02-03 12:00:00 -- -- -- -- -- -- -- -- --
2019-02-03 11:00:00 -- -- -- -- -- -- -- -- --
2019-02-03 10:00:00 -- -- -- -- -- -- -- -- --
2019-02-03 09:00:00 -- -- -- -- -- -- -- -- --
2019-02-03 08:00:00 -- -- -- -- -- -- -- -- --
2019-02-03 07:00:00 -- -- -- -- -- -- -- -- --
2019-02-03 06:00:00 -- -- -- -- -- -- -- -- --
2019-02-03 05:00:00 -- -- -- -- -- -- -- -- --
2019-02-03 04:00:00 -- -- -- -- -- -- -- -- --
2019-02-03 03:00:00 -- -- -- -- -- -- -- -- --
2019-02-03 02:00:00 -- -- -- -- -- -- -- -- --
2019-02-03 01:00:00 -- -- -- -- -- -- -- -- --
2019-02-03 00:00:00 -- -- -- -- -- -- -- -- --
2019-02-02 23:00:00 -- -- -- -- -- -- -- -- --
2019-02-02 22:00:00 -- -- -- -- -- -- -- -- --
2019-02-02 21:00:00 -- -- -- -- -- -- -- -- --
2019-02-02 20:00:00 -- -- -- -- -- -- -- -- --
2019-02-02 19:00:00 -- -- -- -- -- -- -- -- --
2019-02-02 18:00:00 -- -- -- -- -- -- -- -- --
2019-02-02 17:00:00 -- -- -- -- -- -- -- -- --
2019-02-02 16:00:00 -- -- -- -- -- -- -- -- --
2019-02-02 15:00:00 -- -- -- -- -- -- -- -- --
2019-02-02 14:00:00 -- -- -- -- -- -- -- -- --
2019-02-02 13:00:00 -- -- -- -- -- -- -- -- --
2019-02-02 12:00:00 -- -- -- -- -- -- -- -- --
2019-02-02 11:00:00 -- -- -- -- -- -- -- -- --
2019-02-02 10:00:00 -- -- -- -- -- -- -- -- --
2019-02-02 09:00:00 -- -- -- -- -- -- -- -- --
2019-02-02 08:00:00 -- -- -- -- -- -- -- -- --
2019-02-02 07:00:00 -2.5 17 Noroeste 54 Norte 0.2 871.8 2.7 96
2019-02-02 06:00:00 -2.2 26 Noroeste -- -- 0.2 870.5 1.6 99
2019-02-02 05:00:00 -1.6 24 Noroeste 53 Norte 0.2 869.4 2.4 96
2019-02-02 04:00:00 -1.6 17 Noroeste 58 Noroeste 0.2 869.1 2.7 98
2019-02-02 03:00:00 -1.5 18 Noroeste 41 Oeste 0 868.9 3.8 98
2019-02-02 02:00:00 -1.6 10 Noroeste 33 Noroeste 0 867 3.8 99
2019-02-02 01:00:00 -1 13 Noroeste 42 Oeste 0 866.4 4.5 100
2019-02-02 00:00:00 -0.5 21 Oeste 51 Oeste 0.2 865.1 3.9 99
2019-02-01 23:00:00 -0.7 6 Oeste 19 Sur 0.2 863.2 2.3 99
2019-02-01 22:00:00 -1 4 Oeste 18 Sudoeste 0.2 861.9 2.3 98
2019-02-01 21:00:00 -1.3 2 Nordeste 15 Oeste 0.2 861.2 2.3 97
2019-02-01 20:00:00 -1.2 7 Oeste 28 Noroeste 0.4 860.9 2.5 96
2019-02-01 19:00:00 -0.3 14 Sudoeste 29 Sudoeste 0 859.6 2.3 83
2019-02-01 18:00:00 0.7 6 Sudoeste 30 Sudoeste 0.4 858.9 1.9 73
2019-02-01 17:00:00 1.4 15 Sudoeste 31 Sudoeste 0.6 858.4 1.5 75
2019-02-01 16:00:00 2.5 16 Sudoeste 31 Sudoeste 2.2 857.3 -0.7 75
2019-02-01 15:00:00 0.7 5 Noroeste 27 Sudoeste 0.6 857 -1 94
2019-02-01 14:00:00 0.4 8 Sudoeste 41 Sudoeste 0.4 856.9 -1.5 92
2019-02-01 13:00:00 0.4 17 Sudoeste 42 Sudoeste 0.6 858 -0.3 91
2019-02-01 12:00:00 0.9 26 Sudoeste 52 Sudoeste 0 858 -1.1 85
2019-02-01 11:00:00 0.3 21 Sudoeste -- -- 0.4 858.4 -0.7 94
2019-02-01 10:00:00 0.2 -- -- -- -- 0.2 858.3 -0.8 89
2019-02-01 09:00:00 0.3 -- -- -- -- 0 859.1 -0.1 89
2019-02-01 08:00:00 0.3 27 Sudoeste 57 Sudoeste 0.4 859.1 -1 89
2019-02-01 07:00:00 0.9 23 Sudoeste 55 Sudoeste 0.2 859.1 -2.1 86
2019-02-01 06:00:00 1 21 Sudoeste 45 Oeste -- 859.2 -2.2 93
2019-02-01 05:00:00 1.1 -- -- -- -- 0.6 860.1 -1.6 91
2019-02-01 04:00:00 2.2 -- -- -- -- 0 861.2 -1.4 78
2019-02-01 03:00:00 2.9 -- -- -- -- 0 861.4 -1.4 68
2019-02-01 02:00:00 2.7 -- -- -- -- 0.2 861.7 -1.2 79
2019-02-01 01:00:00 3.7 -- -- -- -- 0 862.6 -1 74
2019-02-01 00:00:00 4 -- -- -- -- 0 862.8 -1.6 75
2019-01-31 23:00:00 5.3 -- -- -- -- 0 862.9 -1.4 54
2019-01-31 22:00:00 6 -- -- -- -- 0 863.6 0 69
2019-01-31 21:00:00 6.7 24 Sudoeste 67 Sudoeste 0.2 864.4 0 67
2019-01-31 20:00:00 6.7 23 Sudoeste 64 Sudoeste 1.6 864.3 -0.2 85
2019-01-31 19:00:00 7.4 38 Sudoeste -- -- 4 863.6 -1.2 89
2019-01-31 18:00:00 7.2 -- -- -- -- 10 864.4 -0.9 90
2019-01-31 17:00:00 8.2 -- -- -- -- 4.8 864.5 -2.3 92
2019-01-31 16:00:00 8.4 -- -- -- -- 2 864.8 -3.1 92
2019-01-31 15:00:00 8.6 34 Sudoeste 68 Sudoeste 1.6 865.3 -3.1 91
2019-01-31 14:00:00 8.9 23 Sudoeste 42 Sudoeste 0.2 866.8 -1.4 87
2019-01-31 13:00:00 8.1 17 Sudoeste 38 Sudoeste 0 867.9 -0.4 91
2019-01-31 12:00:00 7.7 16 Sudoeste 35 Sudoeste 0 868.4 -0.4 89
2019-01-31 11:00:00 6.8 19 Sudoeste 37 Sur 0 868.2 -0.3 91
2019-01-31 10:00:00 6.4 18 Sudoeste 33 Sudoeste 0 868.3 -0.2 92
2019-01-31 09:00:00 4.9 10 Sudoeste 28 Sudoeste 0 868.8 0.2 97
2019-01-31 08:00:00 3.8 8 Oeste 20 Oeste 0.6 868.5 -0.4 99
2019-01-31 07:00:00 2.8 6 Nordeste 18 Nordeste 0.2 868.5 -1 99
2019-01-31 06:00:00 2.1 6 Norte 15 Oeste 0.2 868.6 -1.1 98
2019-01-31 05:00:00 1.9 3 Este 14 Oeste 0.4 868.9 -1.2 98
2019-01-31 04:00:00 2.4 6 Noroeste 17 Oeste 0.6 869.5 -1.3 97
2019-01-31 03:00:00 1.6 6 Noroeste 13 Oeste 0.8 869.7 -1.3 99
2019-01-31 02:00:00 0.7 6 Norte 10 Noroeste 0.6 870.1 -1.6 97
2019-01-31 01:00:00 1.1 5 Noroeste 23 Sudoeste 0.8 870.8 -1.3 96
2019-01-31 00:00:00 0.9 2 Oeste 22 Sudoeste 0.8 871 -1.8 96
2019-01-30 23:00:00 0.5 3 Oeste 20 Sur 0.2 871.7 -2.1 98
2019-01-30 22:00:00 0.1 6 Este 19 Sudoeste 0.4 872.1 -2.5 97
2019-01-30 21:00:00 0.1 5 Nordeste 11 Noroeste 0.2 872.8 -2.2 96
2019-01-30 20:00:00 0.1 6 Nordeste 10 Noroeste 0.4 873.8 -2.1 95
2019-01-30 19:00:00 0.3 3 Nordeste 11 Noroeste 0.4 874.6 -1.9 93
2019-01-30 18:00:00 0.9 5 Nordeste 23 Sur 0 875 -2.1 87
2019-01-30 17:00:00 1.8 12 Sudoeste 31 Sudoeste 0 875.9 -2 78
2019-01-30 16:00:00 3.4 15 Sudoeste 40 Sudoeste 0 876.5 -2.3 64
2019-01-30 15:00:00 4.5 19 Sudoeste 33 Sudoeste 0 877.1 -2.7 56
2019-01-30 14:00:00 5.6 11 Sudoeste 27 Sudoeste 0 877.9 -2 45
2019-01-30 13:00:00 4.6 15 Sudoeste 28 Sudoeste 0 878.8 -1.2 44
2019-01-30 12:00:00 4.7 13 Sudoeste 24 Sudoeste 0 879.8 0.1 44
2019-01-30 11:00:00 2.8 13 Sudoeste 28 Oeste 0 879.9 0.4 50
2019-01-30 10:00:00 0.4 9 Oeste 27 Oeste 0 880 -0.1 59
2019-01-30 09:00:00 -1.4 5 Noroeste 23 Oeste 0 879.7 -0.2 66
2019-01-30 08:00:00 -1.6 4 Oeste 22 Oeste 0 879.5 -0.7 65
2019-01-30 07:00:00 -2.4 7 Oeste 24 Oeste 0 880.1 -0.5 75
2019-01-30 06:00:00 -3.4 4 Nordeste 17 Sudoeste 0 879.9 -0.4 85
2019-01-30 05:00:00 -3.7 9 Sur 18 Sur 0 880.2 -0.1 84
2019-01-30 04:00:00 -3 5 Este 15 Sur 0 880.6 0.2 81
2019-01-30 03:00:00 -1.8 7 Nordeste 12 Este 0 880.3 0.1 72
2019-01-30 02:00:00 0.1 8 Noroeste 22 Noroeste 0 880.3 0.1 63
2019-01-30 01:00:00 -0.1 6 Noroeste 22 Oeste 0 880.4 0.5 58
2019-01-30 00:00:00 0.3 6 Noroeste 18 Nordeste 0 880.2 0.2 54
2019-01-29 23:00:00 1 8 Norte 25 Oeste 0 880.2 0.7 56
2019-01-29 22:00:00 1.4 9 Noroeste 37 Noroeste 0 879.9 1.3 48
2019-01-29 21:00:00 2 15 Noroeste 31 Noroeste 0 880 1.6 59
2019-01-29 20:00:00 1.7 12 Oeste 33 Oeste 0 879.5 1.4 69
2019-01-29 19:00:00 2 9 Oeste 37 Oeste 0 878.6 1 65
2019-01-29 18:00:00 3.4 13 Oeste 42 Oeste 0 878.4 0.7 62
2019-01-29 17:00:00 6.4 15 Oeste 43 Oeste 0 878.1 0.6 54
2019-01-29 16:00:00 6.6 19 Noroeste 61 Oeste 0 877.6 -0.9 60
2019-01-29 15:00:00 5.4 8 Oeste 24 Noroeste 2 877.7 -1.5 91
2019-01-29 14:00:00 6.3 7 Sudoeste 33 Oeste 0.2 877.5 -2.3 75
2019-01-29 13:00:00 4.7 12 Oeste 33 Oeste 0 878.5 -2.2 71
2019-01-29 12:00:00 3.2 18 Sur 33 Sur 0 879.2 -2 84
2019-01-29 11:00:00 3.7 13 Sur 31 Sur 0 879.8 -2 80
2019-01-29 10:00:00 2.5 4 Sudeste 17 Sudoeste 0 880.7 -2 79
2019-01-29 09:00:00 1.2 9 Sudoeste 20 Sur 0 881.2 -2.2 81
2019-01-29 08:00:00 1.7 5 Noroeste 24 Oeste 0 881.8 -2.3 78
2019-01-29 07:00:00 1.8 10 Oeste 34 Oeste 0 882.7 -1.8 74
2019-01-29 06:00:00 1.8 18 Oeste 33 Oeste 0 883.4 -1.8 72
2019-01-29 05:00:00 -0.8 3 Sudeste 19 Sur 0 884.1 -1.7 83
2019-01-29 04:00:00 -1 4 Norte 19 Oeste 0 884.5 -2.2 83
2019-01-29 03:00:00 -1.8 6 Noroeste 19 Oeste 0 885.2 -1.8 82
2019-01-29 02:00:00 -2 3 Oeste 18 Oeste 0 885.8 -1.5 81
2019-01-29 01:00:00 -1.4 3 Oeste 19 Oeste 0 886.7 -0.2 80
2019-01-29 00:00:00 -0.4 6 Noroeste 11 Noroeste 0 887 0.2 80
2019-01-28 23:00:00 -0.9 4 Sudoeste 13 Oeste 0 887.3 0.5 86
2019-01-28 22:00:00 -0.7 0 Calma 10 Sur 0 886.9 0.3 85
2019-01-28 21:00:00 0.1 4 Este 10 Sudoeste 0 886.8 0.8 82
2019-01-28 20:00:00 1 4 Sudoeste 20 Norte 0 886.8 1.3 77
2019-01-28 19:00:00 1.4 8 Norte 18 Norte 0 886.6 1.9 75
2019-01-28 18:00:00 4 10 Norte 28 Norte 0 886 1.3 63
2019-01-28 17:00:00 7.1 12 Norte 36 Norte 0 885.5 0.8 53
2019-01-28 16:00:00 9.7 9 Norte 39 Oeste 0 884.7 0.2 35
2019-01-28 15:00:00 8.9 12 Norte 48 Norte 0 884.7 0.9 50
2019-01-28 14:00:00 9.3 13 Norte 46 Noroeste 0 884.7 1.5 41
2019-01-28 13:00:00 8.9 18 Noroeste 49 Norte 0 884.5 1.1 40
2019-01-28 12:00:00 8.6 27 Norte 60 Norte 0 883.8 0.4 41
2019-01-28 11:00:00 8.4 24 Noroeste 54 Noroeste 0 883.2 0.3 45
2019-01-28 10:00:00 6.5 21 Noroeste 55 Noroeste 0 883.4 -0.2 44
2019-01-28 09:00:00 5.7 20 Noroeste 58 Oeste 0 883.4 -0.4 53
2019-01-28 08:00:00 5.6 20 Noroeste 55 Noroeste 0 882.9 -1.1 53
2019-01-28 07:00:00 4.4 21 Noroeste 53 Noroeste 0 883.6 -1 61
2019-01-28 06:00:00 5.1 21 Noroeste 54 Noroeste 0 883.8 -1.5 52
2019-01-28 05:00:00 4.2 17 Noroeste 45 Oeste 0 884 -1.7 60
2019-01-28 04:00:00 1.4 7 Noroeste 19 Oeste 0 884.6 -1.3 75
2019-01-28 03:00:00 -0.9 4 Nordeste 20 Sudoeste 0 885.3 -1 78
2019-01-28 02:00:00 -0.7 6 Sudeste 23 Sur 0 885.7 -0.8 75
2019-01-28 01:00:00 -0.9 9 Sudeste 18 Este 0 885.9 -0.2 76
2019-01-28 00:00:00 -0.6 7 Este 19 Sudoeste 0 886.3 -0.3 75
2019-01-27 23:00:00 -0.5 9 Nordeste 22 Nordeste 0 886.5 0.1 78
2019-01-27 22:00:00 -1.6 10 Sur 21 Sur 0 886.1 -0.1 81
2019-01-27 21:00:00 -1.2 5 Nordeste 21 Sudoeste 0 886.6 0.8 79
2019-01-27 20:00:00 -0.3 5 Sudoeste 21 Sur 0 886.4 1.3 74
2019-01-27 19:00:00 0.8 6 Norte 18 Norte 0 886.2 1.3 70
2019-01-27 18:00:00 2.8 6 Norte 18 Nordeste 0 885.8 1.3 59
2019-01-27 17:00:00 5.6 7 Norte 23 Norte 0 885.1 1 51
2019-01-27 16:00:00 6 10 Nordeste 26 Nordeste 0 884.9 0.4 55
2019-01-27 15:00:00 5.9 12 Norte 52 Norte 0 884.5 0 56
2019-01-27 14:00:00 6.3 23 Norte 46 Norte 0 884.1 0.4 40
2019-01-27 13:00:00 6.1 19 Noroeste 50 Norte 0 884.5 1.5 46
2019-01-27 12:00:00 5 9 Nordeste 17 Nordeste 0 884.5 1.9 65
2019-01-27 11:00:00 3.5 8 Nordeste 28 Noroeste 0 883.7 1.5 67
2019-01-27 10:00:00 2.6 4 Norte 18 Noroeste 0 883 1.3 71
2019-01-27 09:00:00 1.9 9 Noroeste 26 Oeste 0 882.6 0.7 68
2019-01-27 08:00:00 1.6 6 Noroeste 19 Noroeste 0 882.2 0.3 66
2019-01-27 07:00:00 0.6 6 Noroeste 19 Oeste 0 881.7 -0.5 80
2019-01-27 06:00:00 2.8 9 Oeste 22 Noroeste 0 881.9 -0.3 70
2019-01-27 05:00:00 3.9 8 Noroeste 19 Noroeste 0 881.9 -1 72
2019-01-27 04:00:00 4.9 10 Oeste 37 Oeste 0 882.2 -1.3 68
2019-01-27 03:00:00 4.8 9 Oeste 20 Sudoeste 0 882.2 -1.6 63
2019-01-27 02:00:00 5.2 9 Oeste 22 Noroeste 0 882.9 -1.5 57
2019-01-27 01:00:00 3.4 9 Oeste 21 Oeste 0 883.5 -1.3 62
2019-01-27 00:00:00 0.6 5 Oeste 14 Oeste 0 883.8 -1.6 93
2019-01-26 23:00:00 1.7 6 Noroeste 15 Oeste 0 884.4 -1.2 92
2019-01-26 22:00:00 1.8 2 Sur 13 Oeste 0 884.8 -1.2 93
2019-01-26 21:00:00 2.8 5 Oeste 13 Oeste 0 885.4 -0.7 91
2019-01-26 20:00:00 3.8 6 Norte 14 Oeste 0 885.6 -0.9 85
2019-01-26 19:00:00 5 6 Nordeste 20 Nordeste 0 886 -1 78
2019-01-26 18:00:00 8.4 8 Nordeste 20 Nordeste 0 886.1 -1.3 66
2019-01-26 17:00:00 11.2 7 Nordeste 14 Nordeste 0 886.5 -1.8 57
2019-01-26 16:00:00 12.6 6 Nordeste 16 Nordeste 0 887 -2.2 53
2019-01-26 15:00:00 11.8 9 Este 18 Nordeste 0 887.4 -2.2 54
2019-01-26 14:00:00 10.4 8 Este 14 Este 0 888.3 -1.2 58
2019-01-26 13:00:00 6.9 7 Este 15 Sur 0 889.2 -0.5 66
2019-01-26 12:00:00 6.3 3 Este 20 Sur 0 889.6 -0.5 69
2019-01-26 11:00:00 3.7 4 Sudeste 20 Oeste 0 889.5 -0.7 82
2019-01-26 10:00:00 -0.5 6 Oeste 21 Oeste 0 889.7 -0.5 93
2019-01-26 09:00:00 -3.6 6 Noroeste 17 Oeste 0 890.1 -0.6 97
2019-01-26 08:00:00 -3 4 Noroeste 17 Oeste 0 890.2 -0.7 97
2019-01-26 07:00:00 -2.3 7 Noroeste 15 Oeste 0 890.2 -1 99
2019-01-26 06:00:00 -2.7 5 Noroeste 18 Oeste 0 890.7 -0.5 99
2019-01-26 05:00:00 -2.4 3 Norte 10 Oeste 0 890.9 -0.8 97
2019-01-26 04:00:00 -1.4 5 Noroeste 18 Oeste 0 891.2 -1 97
2019-01-26 03:00:00 -1.6 5 Noroeste 19 Oeste 0 891.2 -0.9 96
2019-01-26 02:00:00 -1 4 Noroeste 8 Noroeste 0 891.7 -0.4 95
2019-01-26 01:00:00 -0.1 2 Noroeste 10 Noroeste 0 892.2 0.2 94
2019-01-26 00:00:00 0.3 5 Norte 10 Oeste 0 892.1 0.2 91
2019-01-25 23:00:00 0.6 4 Noroeste 10 Oeste 0 892.1 0.4 89
2019-01-25 22:00:00 0.9 2 Oeste 14 Oeste 0 892 0.4 87
2019-01-25 21:00:00 1.8 8 Noroeste 16 Noroeste 0 891.9 0.7 83
2019-01-25 20:00:00 2.6 9 Noroeste 18 Noroeste 0 891.7 1.1 79
2019-01-25 19:00:00 3.7 13 Norte 26 Norte 0 891.6 1.2 76
2019-01-25 18:00:00 4.5 13 Norte 37 Norte 0 891.2 0.9 74
2019-01-25 17:00:00 8 13 Norte 27 Norte 0 890.6 0.3 63
2019-01-25 16:00:00 9.2 11 Norte 27 Norte 0 890.4 0.1 58
2019-01-25 15:00:00 8.7 12 Norte 29 Norte 0 890.3 -0.3 59
2019-01-25 14:00:00 8.8 13 Norte 35 Norte 0 890.3 0 61
2019-01-25 13:00:00 7.6 18 Norte 38 Norte 0 890.3 0.3 65
2019-01-25 12:00:00 7.1 20 Norte 39 Norte 0 890.6 1.3 66
2019-01-25 11:00:00 6 20 Norte 41 Norte 0 890.3 1.8 71
2019-01-25 10:00:00 4.9 13 Norte 28 Norte 0 890 1.9 79
2019-01-25 09:00:00 3.1 12 Norte 25 Norte 0 889.3 1.3 90
2019-01-25 08:00:00 3.5 14 Norte 24 Norte 0 888.5 0.7 85
2019-01-25 07:00:00 4.6 13 Norte 23 Norte 0 888.1 0.3 77
2019-01-25 06:00:00 6.1 12 Norte 32 Norte 0 888 0.4 69
2019-01-25 05:00:00 5.8 10 Norte 29 Oeste 0 887.8 0.4 71
2019-01-25 04:00:00 5.1 12 Norte 30 Norte 0 887.8 1.1 77
2019-01-25 03:00:00 5.4 10 Norte 35 Norte 0 887.6 1.1 74
2019-01-25 02:00:00 4.8 16 Norte 27 Norte 0 887.4 1.5 75
2019-01-25 01:00:00 5.4 11 Norte 32 Noroeste 0 886.7 0.9 73
2019-01-25 00:00:00 5.4 12 Norte 38 Norte 0 886.5 1.1 79
2019-01-24 23:00:00 5.5 18 Norte 40 Noroeste 0 885.9 0.7 82
2019-01-24 22:00:00 5.9 18 Norte 48 Norte 0 885.8 1.2 79
2019-01-24 21:00:00 6.1 16 Norte 33 Norte 0 885.4 1.4 80
2019-01-24 20:00:00 7 15 Norte 37 Nordeste 0 885.2 1.9 74
2019-01-24 19:00:00 6.7 16 Norte 45 Noroeste 0 884.6 1.5 73
2019-01-24 18:00:00 6.9 14 Norte 43 Noroeste 0 884 1.6 72
2019-01-24 17:00:00 7.6 14 Norte 49 Norte 0 883.3 1.2 69
2019-01-24 16:00:00 7.7 18 Noroeste 58 Norte 0 883.1 1.5 72
2019-01-24 15:00:00 7.7 15 Noroeste 48 Norte 0 882.4 0.8 72
2019-01-24 14:00:00 8 14 Norte 51 Norte 0 882.1 1.1 72
2019-01-24 13:00:00 9.4 22 Noroeste 61 Norte 0 881.6 0.4 66
2019-01-24 12:00:00 7.9 28 Norte 57 Norte 0 881.6 0.5 75
2019-01-24 11:00:00 6.7 28 Norte 50 Norte 0 881 0 77
2019-01-24 10:00:00 6.4 23 Norte 41 Norte 0 881.2 0.6 84
2019-01-24 09:00:00 5.4 18 Norte 33 Norte 0.2 881.1 0.6 90
2019-01-24 08:00:00 5.1 16 Norte 33 Norte 0 881 0.9 90
2019-01-24 07:00:00 4.8 18 Norte 38 Norte 0.2 880.6 0.2 90
2019-01-24 06:00:00 4.5 22 Norte 41 Noroeste 0.2 880.5 0.4 89
2019-01-24 05:00:00 4 21 Norte 50 Norte 0.6 880.1 0.2 91
2019-01-24 04:00:00 3.8 18 Norte 36 Noroeste 1 880.4 0.4 92
2019-01-24 03:00:00 3.8 16 Norte 32 Norte 0.8 880.1 0.1 92
2019-01-24 02:00:00 4.9 18 Norte 41 Norte 0.4 879.9 0.2 86
2019-01-24 01:00:00 4.1 18 Norte 35 Noroeste 0.6 880 0.7 91
2019-01-24 00:00:00 4.5 16 Norte 45 Norte 0.2 880 1.2 86